sensor_id;sensor_type;location;lat;lon;timestamp;pressure;altitude;pressure_sealevel;temperature;humidity
45621;BME280;31345;51.522;10.702;2023-02-02T00:02:12;98924.53;;;2.79;100.00
45621;BME280;31345;51.522;10.702;2023-02-02T00:04:45;98930.03;;;2.70;100.00
45621;BME280;31345;51.522;10.702;2023-02-02T00:07:17;98934.09;;;2.77;100.00
45621;BME280;31345;51.522;10.702;2023-02-02T00:09:51;98933.34;;;2.74;100.00
45621;BME280;31345;51.522;10.702;2023-02-02T00:12:23;98923.25;;;2.68;100.00
45621;BME280;31345;51.522;10.702;2023-02-02T00:14:58;98924.28;;;2.87;100.00
45621;BME280;31345;51.522;10.702;2023-02-02T00:17:30;98927.47;;;2.94;100.00
45621;BME280;31345;51.522;10.702;2023-02-02T00:20:03;98938.41;;;2.77;100.00
45621;BME280;31345;51.522;10.702;2023-02-02T00:22:31;98937.78;;;2.70;100.00
45621;BME280;31345;51.522;10.702;2023-02-02T00:25:06;98945.59;;;2.69;100.00
45621;BME280;31345;51.522;10.702;2023-02-02T00:27:39;98952.88;;;2.57;100.00
45621;BME280;31345;51.522;10.702;2023-02-02T00:30:07;98950.06;;;2.63;100.00
45621;BME280;31345;51.522;10.702;2023-02-02T00:32:35;98952.59;;;2.65;100.00
45621;BME280;31345;51.522;10.702;2023-02-02T00:35:03;98952.66;;;2.63;100.00
45621;BME280;31345;51.522;10.702;2023-02-02T00:37:30;98957.47;;;2.73;100.00
45621;BME280;31345;51.522;10.702;2023-02-02T00:40:05;98959.00;;;2.78;100.00
45621;BME280;31345;51.522;10.702;2023-02-02T00:42:33;98961.03;;;2.70;100.00
45621;BME280;31345;51.522;10.702;2023-02-02T00:45:01;98952.88;;;2.81;100.00
45621;BME280;31345;51.522;10.702;2023-02-02T00:47:50;98962.88;;;2.67;100.00
45621;BME280;31345;51.522;10.702;2023-02-02T00:50:22;98960.66;;;2.56;100.00
45621;BME280;31345;51.522;10.702;2023-02-02T00:52:55;98969.31;;;2.55;100.00
45621;BME280;31345;51.522;10.702;2023-02-02T00:55:30;98970.06;;;2.58;100.00
45621;BME280;31345;51.522;10.702;2023-02-02T00:57:58;98966.47;;;2.62;100.00
45621;BME280;31345;51.522;10.702;2023-02-02T01:00:30;98966.91;;;2.74;100.00
45621;BME280;31345;51.522;10.702;2023-02-02T01:03:03;98969.47;;;2.74;100.00
45621;BME280;31345;51.522;10.702;2023-02-02T01:05:38;98973.13;;;2.68;100.00
45621;BME280;31345;51.522;10.702;2023-02-02T01:08:05;98971.88;;;2.80;100.00
45621;BME280;31345;51.522;10.702;2023-02-02T01:10:34;98972.34;;;2.66;100.00
45621;BME280;31345;51.522;10.702;2023-02-02T01:13:07;98964.28;;;2.75;100.00
45621;BME280;31345;51.522;10.702;2023-02-02T01:15:39;98968.81;;;2.69;100.00
45621;BME280;31345;51.522;10.702;2023-02-02T01:18:12;98969.09;;;2.61;100.00
45621;BME280;31345;51.522;10.702;2023-02-02T01:20:39;98969.38;;;2.77;100.00
45621;BME280;31345;51.522;10.702;2023-02-02T01:23:12;98975.72;;;2.68;100.00
45621;BME280;31345;51.522;10.702;2023-02-02T01:25:52;98968.47;;;2.78;100.00
45621;BME280;31345;51.522;10.702;2023-02-02T01:28:25;98975.09;;;2.61;100.00
45621;BME280;31345;51.522;10.702;2023-02-02T01:31:04;98968.91;;;2.65;100.00
45621;BME280;31345;51.522;10.702;2023-02-02T01:33:37;98975.47;;;2.50;100.00
45621;BME280;31345;51.522;10.702;2023-02-02T01:36:12;98976.09;;;2.57;100.00
45621;BME280;31345;51.522;10.702;2023-02-02T01:38:46;98976.03;;;2.59;100.00
45621;BME280;31345;51.522;10.702;2023-02-02T01:41:22;98971.44;;;2.67;100.00
45621;BME280;31345;51.522;10.702;2023-02-02T01:43:51;98978.47;;;2.63;100.00
45621;BME280;31345;51.522;10.702;2023-02-02T01:46:22;98980.88;;;2.68;100.00
45621;BME280;31345;51.522;10.702;2023-02-02T01:49:02;98979.44;;;2.61;100.00
45621;BME280;31345;51.522;10.702;2023-02-02T01:51:39;98992.56;;;2.53;100.00
45621;BME280;31345;51.522;10.702;2023-02-02T01:54:15;98984.78;;;2.55;100.00
45621;BME280;31345;51.522;10.702;2023-02-02T01:56:50;98992.28;;;2.37;100.00
45621;BME280;31345;51.522;10.702;2023-02-02T01:59:25;98991.28;;;2.41;100.00
45621;BME280;31345;51.522;10.702;2023-02-02T02:01:59;98993.28;;;2.58;100.00
45621;BME280;31345;51.522;10.702;2023-02-02T02:04:32;98992.63;;;2.51;100.00
45621;BME280;31345;51.522;10.702;2023-02-02T02:07:06;98996.63;;;2.60;100.00
45621;BME280;31345;51.522;10.702;2023-02-02T02:09:38;98997.44;;;2.62;100.00
45621;BME280;31345;51.522;10.702;2023-02-02T02:12:11;99000.03;;;2.62;100.00
45621;BME280;31345;51.522;10.702;2023-02-02T02:14:48;99002.19;;;2.49;100.00
45621;BME280;31345;51.522;10.702;2023-02-02T02:17:43;98994.78;;;2.64;100.00
45621;BME280;31345;51.522;10.702;2023-02-02T02:20:38;98992.00;;;2.70;100.00
45621;BME280;31345;51.522;10.702;2023-02-02T02:27:38;98996.34;;;2.68;100.00
45621;BME280;31345;51.522;10.702;2023-02-02T02:30:24;99002.28;;;2.72;100.00
45621;BME280;31345;51.522;10.702;2023-02-02T02:33:02;99006.28;;;2.81;100.00
45621;BME280;31345;51.522;10.702;2023-02-02T02:35:40;99012.75;;;2.67;100.00
45621;BME280;31345;51.522;10.702;2023-02-02T02:38:18;99006.59;;;2.71;100.00
45621;BME280;31345;51.522;10.702;2023-02-02T02:40:57;99017.19;;;2.63;100.00
45621;BME280;31345;51.522;10.702;2023-02-02T02:43:37;99020.59;;;2.64;100.00
45621;BME280;31345;51.522;10.702;2023-02-02T02:46:13;99013.31;;;2.75;100.00
45621;BME280;31345;51.522;10.702;2023-02-02T02:48:47;99014.19;;;2.76;100.00
45621;BME280;31345;51.522;10.702;2023-02-02T02:51:42;99020.78;;;2.59;100.00
45621;BME280;31345;51.522;10.702;2023-02-02T02:54:14;99017.44;;;2.81;100.00
45621;BME280;31345;51.522;10.702;2023-02-02T02:57:02;99029.91;;;2.68;100.00
45621;BME280;31345;51.522;10.702;2023-02-02T02:59:45;99026.41;;;2.71;100.00
45621;BME280;31345;51.522;10.702;2023-02-02T03:02:32;99023.03;;;2.69;100.00
45621;BME280;31345;51.522;10.702;2023-02-02T03:05:17;99031.69;;;2.68;100.00
45621;BME280;31345;51.522;10.702;2023-02-02T03:07:52;99035.69;;;2.51;100.00
45621;BME280;31345;51.522;10.702;2023-02-02T03:10:29;99036.78;;;2.69;100.00
45621;BME280;31345;51.522;10.702;2023-02-02T03:13:06;99024.28;;;2.82;100.00
45621;BME280;31345;51.522;10.702;2023-02-02T03:15:34;99029.28;;;2.87;100.00
45621;BME280;31345;51.522;10.702;2023-02-02T03:18:07;99028.78;;;3.01;100.00
45621;BME280;31345;51.522;10.702;2023-02-02T03:20:36;99032.03;;;2.82;100.00
45621;BME280;31345;51.522;10.702;2023-02-02T03:23:04;99025.13;;;2.83;100.00
45621;BME280;31345;51.522;10.702;2023-02-02T03:25:31;99043.53;;;2.73;100.00
45621;BME280;31345;51.522;10.702;2023-02-02T03:27:59;99036.06;;;2.89;100.00
45621;BME280;31345;51.522;10.702;2023-02-02T03:30:32;99045.22;;;2.74;100.00
45621;BME280;31345;51.522;10.702;2023-02-02T03:33:00;99052.53;;;2.87;100.00
45621;BME280;31345;51.522;10.702;2023-02-02T03:35:29;99049.69;;;2.95;100.00
45621;BME280;31345;51.522;10.702;2023-02-02T03:37:57;99056.63;;;2.92;100.00
45621;BME280;31345;51.522;10.702;2023-02-02T03:40:26;99060.38;;;2.84;100.00
45621;BME280;31345;51.522;10.702;2023-02-02T03:42:54;99063.22;;;3.01;100.00
45621;BME280;31345;51.522;10.702;2023-02-02T03:45:22;99065.28;;;2.91;100.00
45621;BME280;31345;51.522;10.702;2023-02-02T03:47:57;99065.88;;;3.00;100.00
45621;BME280;31345;51.522;10.702;2023-02-02T03:50:30;99066.34;;;2.86;100.00
45621;BME280;31345;51.522;10.702;2023-02-02T03:53:04;99068.22;;;3.06;100.00
45621;BME280;31345;51.522;10.702;2023-02-02T03:55:37;99071.19;;;2.95;100.00
45621;BME280;31345;51.522;10.702;2023-02-02T03:58:10;99069.59;;;2.91;100.00
45621;BME280;31345;51.522;10.702;2023-02-02T04:00:43;99073.00;;;2.93;100.00
45621;BME280;31345;51.522;10.702;2023-02-02T04:03:16;99075.13;;;3.06;100.00
45621;BME280;31345;51.522;10.702;2023-02-02T04:05:49;99077.28;;;3.18;100.00
45621;BME280;31345;51.522;10.702;2023-02-02T04:08:23;99069.56;;;2.92;100.00
45621;BME280;31345;51.522;10.702;2023-02-02T04:10:50;99081.97;;;3.07;100.00
45621;BME280;31345;51.522;10.702;2023-02-02T04:13:23;99088.59;;;2.90;100.00
45621;BME280;31345;51.522;10.702;2023-02-02T04:15:55;99081.13;;;3.06;100.00
45621;BME280;31345;51.522;10.702;2023-02-02T04:18:28;99088.81;;;2.82;100.00
45621;BME280;31345;51.522;10.702;2023-02-02T04:21:01;99085.31;;;2.85;100.00
45621;BME280;31345;51.522;10.702;2023-02-02T04:23:35;99096.91;;;2.98;100.00
45621;BME280;31345;51.522;10.702;2023-02-02T04:26:03;99095.47;;;2.89;100.00
45621;BME280;31345;51.522;10.702;2023-02-02T04:28:36;99100.00;;;3.08;100.00
45621;BME280;31345;51.522;10.702;2023-02-02T04:31:03;99095.66;;;2.85;100.00
45621;BME280;31345;51.522;10.702;2023-02-02T04:33:35;99103.16;;;2.91;100.00
45621;BME280;31345;51.522;10.702;2023-02-02T04:36:08;99095.66;;;2.85;100.00
45621;BME280;31345;51.522;10.702;2023-02-02T04:38:37;99105.81;;;2.89;100.00
45621;BME280;31345;51.522;10.702;2023-02-02T04:41:11;99109.97;;;2.94;100.00
45621;BME280;31345;51.522;10.702;2023-02-02T04:43:44;99105.03;;;2.87;100.00
45621;BME280;31345;51.522;10.702;2023-02-02T04:46:18;99108.91;;;2.74;100.00
45621;BME280;31345;51.522;10.702;2023-02-02T04:48:47;99109.19;;;2.91;100.00
45621;BME280;31345;51.522;10.702;2023-02-02T04:51:19;99102.88;;;3.00;100.00
45621;BME280;31345;51.522;10.702;2023-02-02T04:53:53;99106.97;;;3.06;100.00
45621;BME280;31345;51.522;10.702;2023-02-02T04:56:21;99117.47;;;3.01;100.00
45621;BME280;31345;51.522;10.702;2023-02-02T04:58:54;99117.63;;;2.97;100.00
45621;BME280;31345;51.522;10.702;2023-02-02T05:01:27;99119.47;;;2.93;100.00
45621;BME280;31345;51.522;10.702;2023-02-02T05:03:56;99124.31;;;3.02;100.00
45621;BME280;31345;51.522;10.702;2023-02-02T05:06:23;99122.69;;;3.00;100.00
45621;BME280;31345;51.522;10.702;2023-02-02T05:08:57;99116.94;;;2.91;100.00
45621;BME280;31345;51.522;10.702;2023-02-02T05:11:26;99122.88;;;2.94;100.00
45621;BME280;31345;51.522;10.702;2023-02-02T05:13:58;99126.16;;;3.24;100.00
45621;BME280;31345;51.522;10.702;2023-02-02T05:16:26;99137.50;;;2.95;100.00
45621;BME280;31345;51.522;10.702;2023-02-02T05:18:58;99136.91;;;3.12;100.00
45621;BME280;31345;51.522;10.702;2023-02-02T05:21:26;99141.91;;;2.91;100.00
45621;BME280;31345;51.522;10.702;2023-02-02T05:24:00;99147.88;;;2.93;100.00
45621;BME280;31345;51.522;10.702;2023-02-02T05:26:29;99145.34;;;2.91;100.00
45621;BME280;31345;51.522;10.702;2023-02-02T05:28:56;99147.75;;;2.96;100.00
45621;BME280;31345;51.522;10.702;2023-02-02T05:31:23;99141.53;;;3.02;100.00
45621;BME280;31345;51.522;10.702;2023-02-02T05:33:56;99146.03;;;2.97;100.00
45621;BME280;31345;51.522;10.702;2023-02-02T05:36:29;99159.84;;;2.96;100.00
45621;BME280;31345;51.522;10.702;2023-02-02T05:39:03;99148.00;;;3.15;100.00
45621;BME280;31345;51.522;10.702;2023-02-02T05:41:36;99150.06;;;3.06;100.00
45621;BME280;31345;51.522;10.702;2023-02-02T05:44:04;99160.84;;;2.91;100.00
45621;BME280;31345;51.522;10.702;2023-02-02T05:46:31;99157.50;;;2.88;100.00
45621;BME280;31345;51.522;10.702;2023-02-02T05:49:04;99164.19;;;2.94;100.00
45621;BME280;31345;51.522;10.702;2023-02-02T05:51:35;99170.19;;;2.96;100.00
45621;BME280;31345;51.522;10.702;2023-02-02T05:54:11;99164.69;;;3.05;100.00
45621;BME280;31345;51.522;10.702;2023-02-02T05:56:42;99161.28;;;3.04;100.00
45621;BME280;31345;51.522;10.702;2023-02-02T05:59:15;99163.69;;;3.09;100.00
45621;BME280;31345;51.522;10.702;2023-02-02T06:01:48;99168.59;;;2.91;100.00
45621;BME280;31345;51.522;10.702;2023-02-02T06:04:20;99170.22;;;2.94;100.00
45621;BME280;31345;51.522;10.702;2023-02-02T06:06:53;99158.63;;;3.06;100.00
45621;BME280;31345;51.522;10.702;2023-02-02T06:09:22;99167.13;;;3.10;100.00
45621;BME280;31345;51.522;10.702;2023-02-02T06:11:55;99168.22;;;3.02;100.00
45621;BME280;31345;51.522;10.702;2023-02-02T06:14:22;99166.69;;;2.97;100.00
45621;BME280;31345;51.522;10.702;2023-02-02T06:16:50;99167.38;;;3.02;100.00
45621;BME280;31345;51.522;10.702;2023-02-02T06:19:23;99162.88;;;3.09;100.00
45621;BME280;31345;51.522;10.702;2023-02-02T06:21:55;99168.81;;;3.11;100.00
45621;BME280;31345;51.522;10.702;2023-02-02T06:24:24;99178.50;;;3.04;100.00
45621;BME280;31345;51.522;10.702;2023-02-02T06:26:57;99173.13;;;2.85;100.00
45621;BME280;31345;51.522;10.702;2023-02-02T06:29:24;99177.59;;;3.05;100.00
45621;BME280;31345;51.522;10.702;2023-02-02T06:31:52;99183.00;;;2.99;100.00
45621;BME280;31345;51.522;10.702;2023-02-02T06:34:19;99180.06;;;2.83;100.00
45621;BME280;31345;51.522;10.702;2023-02-02T06:36:47;99180.75;;;2.88;100.00
45621;BME280;31345;51.522;10.702;2023-02-02T06:39:20;99186.34;;;2.74;100.00
45621;BME280;31345;51.522;10.702;2023-02-02T06:41:53;99190.66;;;2.75;100.00
45621;BME280;31345;51.522;10.702;2023-02-02T06:44:26;99200.06;;;2.76;100.00
45621;BME280;31345;51.522;10.702;2023-02-02T06:46:59;99200.25;;;2.70;100.00
45621;BME280;31345;51.522;10.702;2023-02-02T06:49:32;99206.09;;;2.76;100.00
45621;BME280;31345;51.522;10.702;2023-02-02T06:51:59;99205.75;;;2.87;100.00
45621;BME280;31345;51.522;10.702;2023-02-02T06:54:32;99209.22;;;2.86;100.00
45621;BME280;31345;51.522;10.702;2023-02-02T06:57:01;99210.91;;;2.87;100.00
45621;BME280;31345;51.522;10.702;2023-02-02T06:59:34;99208.88;;;2.97;100.00
45621;BME280;31345;51.522;10.702;2023-02-02T07:02:09;99213.13;;;2.98;100.00
45621;BME280;31345;51.522;10.702;2023-02-02T07:04:37;99217.84;;;2.85;100.00
45621;BME280;31345;51.522;10.702;2023-02-02T07:07:10;99219.44;;;2.89;100.00
45621;BME280;31345;51.522;10.702;2023-02-02T07:09:37;99229.97;;;2.83;100.00
45621;BME280;31345;51.522;10.702;2023-02-02T07:12:06;99227.19;;;2.89;100.00
45621;BME280;31345;51.522;10.702;2023-02-02T07:14:33;99232.31;;;2.91;100.00
45621;BME280;31345;51.522;10.702;2023-02-02T07:17:01;99229.16;;;2.81;100.00
45621;BME280;31345;51.522;10.702;2023-02-02T07:19:29;99230.38;;;2.98;100.00
45621;BME280;31345;51.522;10.702;2023-02-02T07:21:56;99237.75;;;3.10;100.00
45621;BME280;31345;51.522;10.702;2023-02-02T07:24:24;99240.09;;;3.16;100.00
45621;BME280;31345;51.522;10.702;2023-02-02T07:26:57;99241.91;;;3.14;100.00
45621;BME280;31345;51.522;10.702;2023-02-02T07:29:31;99244.38;;;3.17;100.00
45621;BME280;31345;51.522;10.702;2023-02-02T07:32:04;99244.28;;;3.21;100.00
45621;BME280;31345;51.522;10.702;2023-02-02T07:34:37;99254.50;;;3.24;100.00
45621;BME280;31345;51.522;10.702;2023-02-02T07:37:09;99266.25;;;3.07;100.00
45621;BME280;31345;51.522;10.702;2023-02-02T07:39:37;99271.16;;;3.15;100.00
45621;BME280;31345;51.522;10.702;2023-02-02T07:42:11;99267.56;;;3.19;100.00
45621;BME280;31345;51.522;10.702;2023-02-02T07:44:46;99263.84;;;3.28;100.00
45621;BME280;31345;51.522;10.702;2023-02-02T07:47:14;99264.53;;;3.33;100.00
45621;BME280;31345;51.522;10.702;2023-02-02T07:49:47;99273.16;;;3.34;100.00
45621;BME280;31345;51.522;10.702;2023-02-02T07:52:19;99276.63;;;3.33;100.00
45621;BME280;31345;51.522;10.702;2023-02-02T07:54:52;99271.69;;;3.25;100.00
45621;BME280;31345;51.522;10.702;2023-02-02T07:57:20;99269.16;;;3.23;100.00
45621;BME280;31345;51.522;10.702;2023-02-02T07:59:48;99271.56;;;3.29;100.00
45621;BME280;31345;51.522;10.702;2023-02-02T08:02:22;99272.25;;;3.35;100.00
45621;BME280;31345;51.522;10.702;2023-02-02T08:04:54;99277.22;;;3.41;100.00
45621;BME280;31345;51.522;10.702;2023-02-02T08:07:27;99274.72;;;3.38;100.00
45621;BME280;31345;51.522;10.702;2023-02-02T08:10:02;99272.28;;;3.33;100.00
45621;BME280;31345;51.522;10.702;2023-02-02T08:12:30;99275.03;;;3.28;100.00
45621;BME280;31345;51.522;10.702;2023-02-02T08:15:05;99279.91;;;3.38;100.00
45621;BME280;31345;51.522;10.702;2023-02-02T08:17:38;99302.84;;;3.47;100.00
45621;BME280;31345;51.522;10.702;2023-02-02T08:20:06;99312.91;;;3.56;100.00
45621;BME280;31345;51.522;10.702;2023-02-02T08:22:39;99301.75;;;3.54;100.00
45621;BME280;31345;51.522;10.702;2023-02-02T08:25:07;99311.03;;;3.60;100.00
45621;BME280;31345;51.522;10.702;2023-02-02T08:27:35;99316.50;;;3.52;100.00
45621;BME280;31345;51.522;10.702;2023-02-02T08:30:11;99318.81;;;3.60;100.00
45621;BME280;31345;51.522;10.702;2023-02-02T08:32:38;99315.50;;;3.56;100.00
45621;BME280;31345;51.522;10.702;2023-02-02T08:35:06;99322.28;;;3.59;100.00
45621;BME280;31345;51.522;10.702;2023-02-02T08:37:39;99323.47;;;3.49;100.00
45621;BME280;31345;51.522;10.702;2023-02-02T08:40:09;99330.38;;;3.48;100.00
45621;BME280;31345;51.522;10.702;2023-02-02T08:42:37;99329.56;;;3.48;100.00
45621;BME280;31345;51.522;10.702;2023-02-02T08:45:05;99335.72;;;3.43;100.00
45621;BME280;31345;51.522;10.702;2023-02-02T08:47:39;99327.41;;;3.34;100.00
45621;BME280;31345;51.522;10.702;2023-02-02T08:50:12;99330.03;;;3.32;100.00
45621;BME280;31345;51.522;10.702;2023-02-02T08:52:40;99337.84;;;3.30;100.00
45621;BME280;31345;51.522;10.702;2023-02-02T08:55:12;99345.50;;;3.34;100.00
45621;BME280;31345;51.522;10.702;2023-02-02T08:57:46;99341.28;;;3.31;100.00
45621;BME280;31345;51.522;10.702;2023-02-02T09:00:19;99349.00;;;3.33;100.00
45621;BME280;31345;51.522;10.702;2023-02-02T09:02:53;99348.31;;;3.26;100.00
45621;BME280;31345;51.522;10.702;2023-02-02T09:05:26;99343.16;;;3.26;100.00
45621;BME280;31345;51.522;10.702;2023-02-02T09:07:53;99349.81;;;3.33;100.00
45621;BME280;31345;51.522;10.702;2023-02-02T09:10:26;99357.78;;;3.27;100.00
45621;BME280;31345;51.522;10.702;2023-02-02T09:12:53;99351.63;;;3.31;100.00
45621;BME280;31345;51.522;10.702;2023-02-02T09:15:21;99359.38;;;3.31;100.00
45621;BME280;31345;51.522;10.702;2023-02-02T09:17:55;99365.41;;;3.30;100.00
45621;BME280;31345;51.522;10.702;2023-02-02T09:20:23;99365.38;;;3.32;100.00
45621;BME280;31345;51.522;10.702;2023-02-02T09:22:50;99370.84;;;3.22;100.00
45621;BME280;31345;51.522;10.702;2023-02-02T09:25:23;99371.88;;;3.16;100.00
45621;BME280;31345;51.522;10.702;2023-02-02T09:27:52;99380.31;;;3.22;100.00
45621;BME280;31345;51.522;10.702;2023-02-02T09:30:25;99382.47;;;3.09;100.00
45621;BME280;31345;51.522;10.702;2023-02-02T09:32:59;99385.94;;;3.06;100.00
45621;BME280;31345;51.522;10.702;2023-02-02T09:35:31;99384.09;;;3.11;100.00
45621;BME280;31345;51.522;10.702;2023-02-02T09:37:59;99392.75;;;3.10;100.00
45621;BME280;31345;51.522;10.702;2023-02-02T09:40:26;99412.50;;;3.11;100.00
45621;BME280;31345;51.522;10.702;2023-02-02T09:43:07;99409.00;;;3.14;100.00
45621;BME280;31345;51.522;10.702;2023-02-02T09:45:47;99405.72;;;3.09;100.00
45621;BME280;31345;51.522;10.702;2023-02-02T09:48:25;99412.91;;;2.97;100.00
45621;BME280;31345;51.522;10.702;2023-02-02T09:50:55;99420.38;;;3.07;100.00
45621;BME280;31345;51.522;10.702;2023-02-02T09:53:38;99428.19;;;3.05;100.00
45621;BME280;31345;51.522;10.702;2023-02-02T09:56:17;99429.16;;;3.01;100.00
45621;BME280;31345;51.522;10.702;2023-02-02T09:58:49;99427.59;;;2.95;100.00
45621;BME280;31345;51.522;10.702;2023-02-02T10:01:25;99425.69;;;3.02;100.00
45621;BME280;31345;51.522;10.702;2023-02-02T10:04:06;99427.28;;;3.06;100.00
45621;BME280;31345;51.522;10.702;2023-02-02T10:06:39;99432.59;;;3.01;100.00
45621;BME280;31345;51.522;10.702;2023-02-02T10:09:22;99428.75;;;3.15;100.00
45621;BME280;31345;51.522;10.702;2023-02-02T10:12:02;99437.09;;;3.25;100.00
45621;BME280;31345;51.522;10.702;2023-02-02T10:14:41;99441.50;;;3.21;100.00
45621;BME280;31345;51.522;10.702;2023-02-02T10:17:33;99434.75;;;3.17;100.00
45621;BME280;31345;51.522;10.702;2023-02-02T10:20:17;99440.69;;;3.19;100.00
45621;BME280;31345;51.522;10.702;2023-02-02T10:22:51;99445.84;;;3.19;100.00
45621;BME280;31345;51.522;10.702;2023-02-02T10:25:26;99445.13;;;3.15;100.00
45621;BME280;31345;51.522;10.702;2023-02-02T10:28:00;99451.03;;;3.19;100.00
45621;BME280;31345;51.522;10.702;2023-02-02T10:30:36;99452.94;;;3.12;100.00
45621;BME280;31345;51.522;10.702;2023-02-02T10:33:19;99444.41;;;3.10;100.00
45621;BME280;31345;51.522;10.702;2023-02-02T10:36:02;99452.06;;;3.13;100.00
45621;BME280;31345;51.522;10.702;2023-02-02T10:38:37;99448.78;;;3.08;100.00
45621;BME280;31345;51.522;10.702;2023-02-02T10:41:17;99456.34;;;3.14;100.00
45621;BME280;31345;51.522;10.702;2023-02-02T10:44:06;99460.78;;;3.09;100.00
45621;BME280;31345;51.522;10.702;2023-02-02T10:46:43;99465.88;;;3.12;100.00
45621;BME280;31345;51.522;10.702;2023-02-02T10:49:25;99466.56;;;3.17;100.00
45621;BME280;31345;51.522;10.702;2023-02-02T10:52:04;99458.66;;;3.24;100.00
45621;BME280;31345;51.522;10.702;2023-02-02T10:54:50;99459.56;;;3.23;100.00
45621;BME280;31345;51.522;10.702;2023-02-02T10:57:27;99464.53;;;3.29;100.00
45621;BME280;31345;51.522;10.702;2023-02-02T11:00:03;99478.97;;;3.36;100.00
45621;BME280;31345;51.522;10.702;2023-02-02T11:02:36;99469.69;;;3.29;100.00
45621;BME280;31345;51.522;10.702;2023-02-02T11:05:04;99470.69;;;3.25;100.00
45621;BME280;31345;51.522;10.702;2023-02-02T11:07:56;99474.84;;;3.29;100.00
45621;BME280;31345;51.522;10.702;2023-02-02T11:10:24;99471.50;;;3.27;100.00
45621;BME280;31345;51.522;10.702;2023-02-02T11:12:57;99470.59;;;3.28;100.00
45621;BME280;31345;51.522;10.702;2023-02-02T11:15:31;99465.41;;;3.28;100.00
45621;BME280;31345;51.522;10.702;2023-02-02T11:18:12;99479.63;;;3.43;100.00
45621;BME280;31345;51.522;10.702;2023-02-02T11:20:46;99479.63;;;3.43;100.00
45621;BME280;31345;51.522;10.702;2023-02-02T11:23:20;99476.25;;;3.41;100.00
45621;BME280;31345;51.522;10.702;2023-02-02T11:25:58;99475.97;;;3.50;100.00
45621;BME280;31345;51.522;10.702;2023-02-02T11:28:33;99477.72;;;3.48;100.00
45621;BME280;31345;51.522;10.702;2023-02-02T11:31:02;99483.78;;;3.47;100.00
45621;BME280;31345;51.522;10.702;2023-02-02T11:33:35;99489.69;;;3.52;100.00
45621;BME280;31345;51.522;10.702;2023-02-02T11:36:06;99491.19;;;3.60;100.00
45621;BME280;31345;51.522;10.702;2023-02-02T11:38:45;99483.53;;;3.56;100.00
45621;BME280;31345;51.522;10.702;2023-02-02T11:41:17;99482.44;;;3.64;100.00
45621;BME280;31345;51.522;10.702;2023-02-02T11:43:51;99478.13;;;3.64;100.00
45621;BME280;31345;51.522;10.702;2023-02-02T11:46:27;99497.16;;;3.62;100.00
45621;BME280;31345;51.522;10.702;2023-02-02T11:49:05;99488.41;;;3.66;100.00
45621;BME280;31345;51.522;10.702;2023-02-02T11:51:38;99493.47;;;3.71;100.00
45621;BME280;31345;51.522;10.702;2023-02-02T11:54:15;99489.13;;;3.71;100.00
45621;BME280;31345;51.522;10.702;2023-02-02T11:56:50;99496.34;;;3.60;100.00
45621;BME280;31345;51.522;10.702;2023-02-02T11:59:27;99497.25;;;3.59;100.00
45621;BME280;31345;51.522;10.702;2023-02-02T12:02:24;99500.56;;;3.62;100.00
45621;BME280;31345;51.522;10.702;2023-02-02T12:04:54;99497.94;;;3.64;100.00
45621;BME280;31345;51.522;10.702;2023-02-02T12:07:27;99487.91;;;3.54;100.00
45621;BME280;31345;51.522;10.702;2023-02-02T12:10:10;99492.13;;;3.57;100.00
45621;BME280;31345;51.522;10.702;2023-02-02T12:12:43;99502.34;;;3.62;100.00
45621;BME280;31345;51.522;10.702;2023-02-02T12:15:23;99505.88;;;3.59;100.00
45621;BME280;31345;51.522;10.702;2023-02-02T12:18:09;99499.09;;;3.55;100.00
45621;BME280;31345;51.522;10.702;2023-02-02T12:20:50;99493.16;;;3.51;100.00
45621;BME280;31345;51.522;10.702;2023-02-02T12:23:36;99494.75;;;3.55;100.00
45621;BME280;31345;51.522;10.702;2023-02-02T12:26:20;99497.38;;;3.54;100.00
45621;BME280;31345;51.522;10.702;2023-02-02T12:29:13;99497.06;;;3.65;100.00
45621;BME280;31345;51.522;10.702;2023-02-02T12:31:52;99493.81;;;3.58;100.00
45621;BME280;31345;51.522;10.702;2023-02-02T12:34:32;99490.75;;;3.74;100.00
45621;BME280;31345;51.522;10.702;2023-02-02T12:37:12;99494.31;;;3.69;100.00
45621;BME280;31345;51.522;10.702;2023-02-02T12:39:52;99503.97;;;3.64;100.00
45621;BME280;31345;51.522;10.702;2023-02-02T12:42:35;99500.66;;;3.61;100.00
45621;BME280;31345;51.522;10.702;2023-02-02T12:45:23;99498.97;;;3.58;100.00
45621;BME280;31345;51.522;10.702;2023-02-02T12:48:02;99493.72;;;3.61;100.00
45621;BME280;31345;51.522;10.702;2023-02-02T12:50:42;99497.22;;;3.60;100.00
45621;BME280;31345;51.522;10.702;2023-02-02T12:53:29;99497.13;;;3.63;100.00
45621;BME280;31345;51.522;10.702;2023-02-02T12:56:15;99500.31;;;3.72;100.00
45621;BME280;31345;51.522;10.702;2023-02-02T12:58:58;99503.88;;;3.67;100.00
45621;BME280;31345;51.522;10.702;2023-02-02T13:01:50;99505.75;;;3.62;100.00
45621;BME280;31345;51.522;10.702;2023-02-02T13:04:36;99509.69;;;3.46;100.00
45621;BME280;31345;51.522;10.702;2023-02-02T13:07:31;99520.56;;;3.57;100.00
45621;BME280;31345;51.522;10.702;2023-02-02T13:10:19;99513.00;;;3.51;100.00
45621;BME280;31345;51.522;10.702;2023-02-02T13:12:52;99514.56;;;3.56;100.00
45621;BME280;31345;51.522;10.702;2023-02-02T13:15:30;99509.22;;;3.61;100.00
45621;BME280;31345;51.522;10.702;2023-02-02T13:18:02;99518.78;;;3.59;100.00
45621;BME280;31345;51.522;10.702;2023-02-02T13:20:40;99518.63;;;3.64;100.00
45621;BME280;31345;51.522;10.702;2023-02-02T13:23:18;99521.56;;;3.53;100.00
45621;BME280;31345;51.522;10.702;2023-02-02T13:25:49;99523.09;;;3.59;100.00
45621;BME280;31345;51.522;10.702;2023-02-02T13:28:31;99521.38;;;3.59;100.00
45621;BME280;31345;51.522;10.702;2023-02-02T13:31:12;99526.34;;;3.65;100.00